createdAt,value
2023-10-30T00:03:12.597Z,15.21
2023-10-30T00:08:14.196Z,15.24
2023-10-30T00:13:15.691Z,15.30
2023-10-30T00:18:17.330Z,15.38
2023-10-30T00:23:18.886Z,15.41
2023-10-30T00:28:20.377Z,15.41
2023-10-30T00:33:21.923Z,15.41
2023-10-30T00:38:23.503Z,15.42
2023-10-30T00:43:24.967Z,15.36
2023-10-30T00:48:26.617Z,15.30
2023-10-30T00:53:28.723Z,15.28
2023-10-30T00:58:30.206Z,15.28
2023-10-30T01:03:31.958Z,15.23
2023-10-30T01:08:33.821Z,15.15
2023-10-30T01:13:37.338Z,15.10
2023-10-30T01:18:39.019Z,15.08
2023-10-30T01:23:40.873Z,15.07
2023-10-30T01:28:42.639Z,15.05
2023-10-30T01:33:44.298Z,14.98
2023-10-30T01:38:45.834Z,14.96
2023-10-30T01:43:47.299Z,14.96
2023-10-30T01:48:49.867Z,14.95
2023-10-30T01:53:52.305Z,14.95
2023-10-30T01:58:53.764Z,14.94
2023-10-30T02:03:56.733Z,14.94
2023-10-30T02:08:58.504Z,14.94
2023-10-30T02:14:00.037Z,14.94
2023-10-30T02:19:01.592Z,14.93
2023-10-30T02:24:07.855Z,14.93
2023-10-30T02:29:10.688Z,14.87
2023-10-30T02:34:14.011Z,14.84
2023-10-30T02:39:15.589Z,14.81
2023-10-30T02:44:17.115Z,14.76
2023-10-30T02:49:18.647Z,14.74
2023-10-30T02:54:20.236Z,14.74
2023-10-30T02:59:21.788Z,14.69
2023-10-30T03:04:24.702Z,14.60
2023-10-30T03:09:31.346Z,14.52
2023-10-30T03:14:32.949Z,14.52
2023-10-30T03:19:34.481Z,14.52
2023-10-30T03:24:36.058Z,14.50
2023-10-30T03:29:37.918Z,14.42
2023-10-30T03:34:40.482Z,14.38
2023-10-30T03:39:42.027Z,14.37
2023-10-30T03:44:43.540Z,14.38
2023-10-30T03:49:45.053Z,14.38
2023-10-30T03:54:46.791Z,14.33
2023-10-30T03:59:48.580Z,14.31
2023-10-30T04:04:50.244Z,14.32
2023-10-30T04:09:52.494Z,14.30
2023-10-30T04:14:54.015Z,14.27
2023-10-30T04:19:55.562Z,14.24
2023-10-30T04:24:57.193Z,14.20
2023-10-30T04:29:58.848Z,14.19
2023-10-30T04:35:00.342Z,14.14
2023-10-30T04:40:01.847Z,14.03
2023-10-30T04:45:03.745Z,13.92
2023-10-30T04:50:05.709Z,13.88
2023-10-30T04:55:07.678Z,13.85
2023-10-30T05:00:09.797Z,13.85
2023-10-30T05:05:11.322Z,13.88
2023-10-30T05:10:13.273Z,13.93
2023-10-30T05:15:14.799Z,13.94
2023-10-30T05:20:16.528Z,13.94
2023-10-30T05:25:21.158Z,13.96
2023-10-30T05:30:24.969Z,14.01
2023-10-30T05:35:26.476Z,14.07
2023-10-30T05:40:28.041Z,14.11
2023-10-30T05:45:29.706Z,14.11
2023-10-30T05:50:31.279Z,14.10
2023-10-30T05:55:32.825Z,14.09
2023-10-30T06:00:34.411Z,14.08
2023-10-30T06:05:36.321Z,14.07
2023-10-30T06:10:40.892Z,14.11
2023-10-30T06:15:42.593Z,14.12
2023-10-30T06:20:45.822Z,14.15
2023-10-30T06:25:47.339Z,14.19
2023-10-30T06:30:48.868Z,14.25
2023-10-30T06:35:56.934Z,14.29
2023-10-30T06:40:58.452Z,14.30
2023-10-30T06:46:03.841Z,14.35
2023-10-30T06:51:05.908Z,14.38
2023-10-30T06:56:07.974Z,14.40
2023-10-30T07:01:09.634Z,14.43
2023-10-30T07:06:12.197Z,14.48
2023-10-30T07:11:13.717Z,14.55
2023-10-30T07:16:15.375Z,14.62
2023-10-30T07:21:16.919Z,14.70
2023-10-30T07:26:19.574Z,14.72
2023-10-30T07:31:21.229Z,14.73
2023-10-30T07:36:22.796Z,14.81
2023-10-30T07:41:24.491Z,14.97
2023-10-30T07:46:26.351Z,15.16
2023-10-30T07:51:28.062Z,15.30
2023-10-30T07:56:29.790Z,15.40
2023-10-30T08:01:31.392Z,15.50
2023-10-30T08:06:34.326Z,15.60
2023-10-30T08:11:36.488Z,15.77
2023-10-30T08:16:38.212Z,15.94
2023-10-30T08:21:39.888Z,16.08
2023-10-30T08:26:41.607Z,16.10
2023-10-30T08:31:43.451Z,16.12
2023-10-30T08:36:45.389Z,16.10
2023-10-30T08:41:47.015Z,16.09
2023-10-30T08:46:48.566Z,16.10
2023-10-30T08:52:00.678Z,16.13
2023-10-30T08:57:16.584Z,16.19
2023-10-30T09:02:19.046Z,16.25
2023-10-30T09:07:21.280Z,16.29
2023-10-30T09:12:23.184Z,16.37
2023-10-30T09:17:24.798Z,16.44
2023-10-30T09:22:27.006Z,16.57
2023-10-30T09:27:28.686Z,16.63
2023-10-30T09:32:30.294Z,16.68
2023-10-30T09:37:31.811Z,16.71
2023-10-30T09:42:35.664Z,16.77
2023-10-30T09:47:37.387Z,16.79
2023-10-30T09:52:39.028Z,16.87
2023-10-30T09:57:41.878Z,16.97
2023-10-30T10:02:44.571Z,17.06
2023-10-30T10:07:47.057Z,17.13
2023-10-30T10:12:55.218Z,17.25
2023-10-30T10:17:57.409Z,17.25
2023-10-30T10:22:58.973Z,17.26
2023-10-30T10:28:01.269Z,17.33
2023-10-30T10:33:03.248Z,17.41
2023-10-30T10:38:14.314Z,17.57
2023-10-30T10:43:21.005Z,17.75
2023-10-30T10:48:24.752Z,17.98
2023-10-30T10:53:28.957Z,18.12
2023-10-30T10:58:41.269Z,18.13
2023-10-30T11:03:43.084Z,18.19
2023-10-30T11:09:11.262Z,18.36
2023-10-30T11:14:21.510Z,18.53
2023-10-30T11:19:23.605Z,18.66
2023-10-30T11:24:45.120Z,18.70
2023-10-30T11:30:12.752Z,18.70
2023-10-30T11:35:14.827Z,18.77
2023-10-30T11:40:16.540Z,18.86
2023-10-30T11:45:19.877Z,18.85
2023-10-30T11:50:26.252Z,18.81
2023-10-30T11:55:30.383Z,18.80
2023-10-30T12:00:32.382Z,18.77
2023-10-30T12:05:33.990Z,18.83
2023-10-30T12:10:36.855Z,18.92
2023-10-30T12:15:39.104Z,19.03
2023-10-30T12:20:40.595Z,19.11
2023-10-30T12:25:42.307Z,19.13
2023-10-30T12:30:44.440Z,19.17
2023-10-30T12:35:56.793Z,19.21
2023-10-30T12:40:58.583Z,19.22
2023-10-30T12:46:00.124Z,19.29
2023-10-30T12:51:02.151Z,19.32
2023-10-30T12:56:03.781Z,19.32
2023-10-30T13:06:10.136Z,19.11
2023-10-30T13:11:12.400Z,19.06
2023-10-30T13:16:14.009Z,19.03
2023-10-30T13:21:16.345Z,19.00
2023-10-30T13:26:18.944Z,18.98
2023-10-30T13:31:20.437Z,18.93
2023-10-30T13:36:22.368Z,18.87
2023-10-30T13:41:24.108Z,18.81
2023-10-30T13:46:25.769Z,18.70
2023-10-30T13:51:27.306Z,18.60
2023-10-30T13:56:28.912Z,18.52
2023-10-30T14:01:30.550Z,18.44
2023-10-30T14:06:32.150Z,18.43
2023-10-30T14:11:33.694Z,18.34
2023-10-30T14:16:36.114Z,18.24
2023-10-30T14:21:37.837Z,18.15
2023-10-30T14:26:39.883Z,18.06
2023-10-30T14:31:41.509Z,17.93
2023-10-30T14:36:43.169Z,17.81
2023-10-30T14:41:44.735Z,17.73
2023-10-30T14:46:46.294Z,17.63
2023-10-30T14:51:48.444Z,17.55
2023-10-30T14:56:51.312Z,17.49
2023-10-30T15:01:55.189Z,17.40
2023-10-30T15:06:56.812Z,17.34
2023-10-30T15:11:58.385Z,17.27
2023-10-30T15:16:59.990Z,17.16
2023-10-30T15:22:01.607Z,17.04
2023-10-30T15:27:04.637Z,16.96
2023-10-30T15:32:06.491Z,16.89
2023-10-30T15:37:08.122Z,16.84
2023-10-30T15:42:09.804Z,16.78
2023-10-30T15:47:24.150Z,16.73
2023-10-30T15:57:33.615Z,16.63
2023-10-30T16:02:35.552Z,16.58
2023-10-30T16:07:38.007Z,16.53
2023-10-30T16:12:39.608Z,16.49
2023-10-30T16:17:41.234Z,16.45
2023-10-30T16:22:43.006Z,16.41
2023-10-30T16:27:45.445Z,16.39
2023-10-30T16:32:47.034Z,16.37
2023-10-30T16:37:51.453Z,16.37
2023-10-30T16:42:52.984Z,16.38
2023-10-30T16:47:54.805Z,16.36
2023-10-30T16:52:56.389Z,16.35
2023-10-30T16:57:58.210Z,16.38
2023-10-30T17:03:01.048Z,16.42
2023-10-30T17:08:03.797Z,16.46
2023-10-30T17:13:08.839Z,16.49
2023-10-30T17:18:10.419Z,16.50
2023-10-30T17:23:11.967Z,16.51
2023-10-30T17:28:13.869Z,16.48
2023-10-30T17:33:15.404Z,16.43
2023-10-30T17:38:17.074Z,16.35
2023-10-30T17:43:18.628Z,16.32
2023-10-30T17:48:20.176Z,16.28
2023-10-30T17:53:21.718Z,16.25
2023-10-30T17:58:23.331Z,16.19
2023-10-30T18:03:24.989Z,16.12
2023-10-30T18:08:26.536Z,16.07
2023-10-30T18:13:28.046Z,15.99
2023-10-30T18:18:29.706Z,15.93
2023-10-30T18:23:32.825Z,15.88
2023-10-30T18:28:34.369Z,15.86
2023-10-30T18:33:35.916Z,15.80
2023-10-30T18:38:37.491Z,15.78
2023-10-30T18:43:39.022Z,15.81
2023-10-30T18:48:41.619Z,15.83
2023-10-30T18:53:43.972Z,15.83
2023-10-30T18:58:45.594Z,15.82
2023-10-30T19:03:48.177Z,15.82
2023-10-30T19:08:51.421Z,15.81
2023-10-30T19:13:54.452Z,15.79
2023-10-30T19:18:56.620Z,15.81
2023-10-30T19:23:58.097Z,15.82
2023-10-30T19:28:59.696Z,15.83
2023-10-30T19:34:01.271Z,15.83
2023-10-30T19:39:03.061Z,15.85
2023-10-30T19:44:04.921Z,15.85
2023-10-30T19:49:06.659Z,15.85
2023-10-30T19:54:08.215Z,15.85
2023-10-30T19:59:09.671Z,15.86
2023-10-30T20:04:11.259Z,15.87
2023-10-30T20:09:14.199Z,15.89
2023-10-30T20:14:15.762Z,15.92
2023-10-30T20:19:17.279Z,15.91
2023-10-30T20:24:18.848Z,15.93
2023-10-30T20:29:21.440Z,15.94
2023-10-30T20:34:22.960Z,15.93
2023-10-30T20:39:26.074Z,15.93
2023-10-30T20:44:27.639Z,15.93
2023-10-30T20:49:29.219Z,15.92
2023-10-30T20:54:30.818Z,15.92
2023-10-30T20:59:32.434Z,15.92
2023-10-30T21:04:34.059Z,15.92
2023-10-30T21:09:37.210Z,15.91
2023-10-30T21:14:38.745Z,15.94
2023-10-30T21:19:40.572Z,15.97
2023-10-30T21:24:42.324Z,15.99
2023-10-30T21:29:43.977Z,15.99
2023-10-30T21:34:45.519Z,16.00
2023-10-30T21:39:47.083Z,15.98
2023-10-30T21:44:49.106Z,16.00
2023-10-30T21:49:50.907Z,16.00
2023-10-30T21:54:52.784Z,16.03
2023-10-30T21:59:54.371Z,16.03
2023-10-30T22:04:56.644Z,16.02
2023-10-30T22:09:58.159Z,16.03
2023-10-30T22:15:00.845Z,16.01
2023-10-30T22:20:02.454Z,16.00
2023-10-30T22:25:04.489Z,16.01
2023-10-30T22:30:09.702Z,16.00
2023-10-30T22:35:11.480Z,15.98
2023-10-30T22:40:13.543Z,15.97
2023-10-30T22:45:15.170Z,15.96
2023-10-30T22:50:16.884Z,15.92
2023-10-30T22:55:18.514Z,15.88
2023-10-30T23:00:23.872Z,15.85
2023-10-30T23:05:25.422Z,15.83
2023-10-30T23:10:27.744Z,15.78
2023-10-30T23:15:29.221Z,15.76
2023-10-30T23:20:30.868Z,15.72
2023-10-30T23:25:32.535Z,15.70
2023-10-30T23:30:34.083Z,15.69
2023-10-30T23:35:35.648Z,15.67
2023-10-30T23:40:37.457Z,15.65
2023-10-30T23:45:39.007Z,15.65
2023-10-30T23:50:40.528Z,15.62
2023-10-30T23:55:42.269Z,15.61
